createdAt,value
2022-07-28T00:00:24.240Z,13.25
2022-07-28T00:02:56.368Z,12.65
2022-07-28T00:05:30.600Z,12.73
2022-07-28T00:08:03.228Z,12.60
2022-07-28T00:10:35.802Z,12.85
2022-07-28T00:13:07.883Z,13.18
2022-07-28T00:15:39.857Z,13.30
2022-07-28T00:18:11.789Z,13.20
2022-07-28T00:20:44.019Z,13.43
2022-07-28T00:23:16.349Z,12.18
2022-07-28T00:25:48.704Z,10.78
2022-07-28T00:28:20.667Z,11.33
2022-07-28T00:30:54.217Z,11.03
2022-07-28T00:33:27.113Z,10.68
2022-07-28T00:35:59.140Z,11.88
2022-07-28T00:38:32.016Z,10.32
2022-07-28T00:41:13.403Z,10.98
2022-07-28T00:43:48.511Z,10.85
2022-07-28T00:46:23.078Z,11.45
2022-07-28T00:48:56.540Z,11.65
2022-07-28T00:51:29.641Z,11.22
2022-07-28T00:54:01.976Z,11.30
2022-07-28T00:56:35.924Z,11.22
2022-07-28T00:59:08.377Z,11.48
2022-07-28T01:01:40.488Z,10.85
2022-07-28T01:04:13.096Z,11.10
2022-07-28T01:06:54.082Z,11.18
2022-07-28T01:09:53.189Z,10.98
2022-07-28T01:12:49.304Z,10.88
2022-07-28T01:15:33.394Z,12.00
2022-07-28T01:18:08.548Z,11.00
2022-07-28T01:20:55.673Z,11.22
2022-07-28T01:23:30.739Z,11.12
2022-07-28T01:26:26.733Z,11.30
2022-07-28T01:29:10.711Z,11.30
2022-07-28T01:31:45.777Z,11.60
2022-07-28T01:34:23.749Z,11.63
2022-07-28T01:36:58.834Z,10.63
2022-07-28T01:39:33.909Z,11.28
2022-07-28T01:42:08.464Z,11.03
2022-07-28T01:44:43.571Z,11.73
2022-07-28T01:47:17.982Z,10.75
2022-07-28T01:52:24.599Z,11.65
2022-07-28T01:55:00.210Z,11.15
2022-07-28T01:57:35.936Z,11.12
2022-07-28T02:00:11.635Z,11.88
2022-07-28T02:02:49.364Z,11.78
2022-07-28T02:05:23.551Z,12.88
2022-07-28T02:07:58.580Z,12.55
2022-07-28T02:10:31.600Z,12.98
2022-07-28T02:13:05.108Z,12.07
2022-07-28T02:15:40.344Z,12.43
2022-07-28T02:18:13.171Z,12.13
2022-07-28T02:21:03.294Z,12.23
2022-07-28T02:23:36.686Z,13.50
2022-07-28T02:26:11.811Z,13.35
2022-07-28T02:28:47.275Z,12.75
2022-07-28T02:31:22.646Z,12.35
2022-07-28T02:34:00.115Z,12.50
2022-07-28T02:36:38.154Z,13.95
2022-07-28T02:39:14.832Z,13.78
2022-07-28T02:41:49.857Z,14.07
2022-07-28T02:44:24.831Z,13.50
2022-07-28T02:46:59.362Z,13.38
2022-07-28T02:49:33.684Z,14.63
2022-07-28T02:54:41.289Z,14.20
2022-07-28T02:57:15.967Z,14.28
2022-07-28T02:59:51.607Z,14.87
2022-07-28T03:02:25.165Z,16.23
2022-07-28T03:04:59.322Z,13.33
2022-07-28T03:07:36.512Z,13.80
2022-07-28T03:10:12.590Z,15.05
2022-07-28T03:12:44.773Z,14.33
2022-07-28T03:15:17.598Z,14.75
2022-07-28T03:17:49.682Z,14.55
2022-07-28T03:20:22.006Z,13.90
2022-07-28T03:22:54.226Z,13.62
2022-07-28T03:25:29.977Z,13.35
2022-07-28T03:28:04.529Z,14.38
2022-07-28T03:30:42.874Z,15.03
2022-07-28T03:33:15.206Z,14.43
2022-07-28T03:35:50.232Z,15.20
2022-07-28T03:38:27.761Z,15.15
2022-07-28T03:41:00.903Z,13.85
2022-07-28T03:43:34.730Z,15.60
2022-07-28T03:46:12.845Z,15.60
2022-07-28T03:48:42.587Z,13.38
2022-07-28T03:51:14.913Z,13.93
2022-07-28T03:53:47.740Z,14.13
2022-07-28T03:56:20.080Z,15.08
2022-07-28T03:58:52.162Z,16.17
2022-07-28T04:01:24.539Z,14.47
2022-07-28T04:03:57.263Z,15.48
2022-07-28T04:06:29.550Z,14.45
2022-07-28T04:09:01.824Z,14.53
2022-07-28T04:11:34.277Z,14.83
2022-07-28T04:14:06.360Z,14.40
2022-07-28T04:16:39.382Z,13.98
2022-07-28T04:19:14.442Z,14.10
2022-07-28T04:21:46.938Z,13.50
2022-07-28T04:24:20.047Z,15.58
2022-07-28T04:26:52.781Z,14.47
2022-07-28T04:29:27.349Z,14.93
2022-07-28T04:31:59.592Z,15.20
2022-07-28T04:34:31.657Z,14.78
2022-07-28T04:37:04.389Z,14.73
2022-07-28T04:39:36.865Z,14.60
2022-07-28T04:42:09.361Z,15.88
2022-07-28T04:44:42.705Z,14.73
2022-07-28T04:47:15.380Z,14.98
2022-07-28T04:49:47.501Z,14.43
2022-07-28T04:52:20.181Z,15.20
2022-07-28T04:54:52.585Z,18.67
2022-07-28T04:57:27.053Z,16.00
2022-07-28T05:00:04.289Z,14.13
2022-07-28T05:02:37.675Z,13.08
2022-07-28T05:05:10.685Z,13.98
2022-07-28T05:07:43.261Z,11.48
2022-07-28T05:10:16.219Z,13.80
2022-07-28T05:12:49.897Z,12.47
2022-07-28T05:15:22.592Z,13.27
2022-07-28T05:17:55.175Z,12.03
2022-07-28T05:20:27.805Z,12.10
2022-07-28T05:23:00.070Z,12.98
2022-07-28T05:25:32.530Z,13.32
2022-07-28T05:28:05.995Z,13.08
2022-07-28T05:30:38.531Z,13.53
2022-07-28T05:33:10.594Z,12.95
2022-07-28T05:35:42.920Z,12.73
2022-07-28T05:38:15.449Z,12.70
2022-07-28T05:40:50.246Z,11.25
2022-07-28T05:43:23.139Z,15.08
2022-07-28T05:45:55.751Z,11.93
2022-07-28T05:48:28.244Z,12.37
2022-07-28T05:51:01.317Z,11.15
2022-07-28T05:53:34.896Z,11.63
2022-07-28T05:56:08.688Z,9.93
2022-07-28T05:58:41.132Z,9.58
2022-07-28T06:01:13.349Z,9.18
2022-07-28T06:03:58.066Z,10.05
2022-07-28T06:08:51.229Z,10.45
2022-07-28T06:11:24.693Z,9.75
2022-07-28T06:13:57.562Z,9.48
2022-07-28T06:16:30.357Z,9.40
2022-07-28T06:19:02.884Z,8.58
2022-07-28T06:21:36.944Z,9.53
2022-07-28T06:24:09.679Z,9.35
2022-07-28T06:26:44.868Z,8.70
2022-07-28T06:29:17.028Z,9.13
2022-07-28T06:31:50.516Z,8.58
2022-07-28T06:34:23.985Z,8.90
2022-07-28T06:36:56.552Z,7.55
2022-07-28T06:39:28.817Z,7.50
2022-07-28T06:42:01.805Z,7.53
2022-07-28T06:44:57.520Z,7.40
2022-07-28T06:47:10.691Z,13.20
2022-07-28T06:49:43.385Z,10.80
2022-07-28T06:52:17.378Z,9.98
2022-07-28T06:54:58.300Z,8.25
2022-07-28T06:57:33.560Z,7.83
2022-07-28T07:00:07.940Z,6.75
2022-07-28T07:02:41.820Z,6.25
2022-07-28T07:05:14.538Z,7.57
2022-07-28T07:07:47.236Z,7.10
2022-07-28T07:10:19.985Z,7.58
2022-07-28T07:12:52.473Z,7.45
2022-07-28T07:15:25.656Z,6.87
2022-07-28T07:18:00.415Z,6.85
2022-07-28T07:20:32.922Z,6.47
2022-07-28T07:23:05.670Z,6.70
2022-07-28T07:25:38.504Z,6.90
2022-07-28T07:28:11.165Z,7.50
2022-07-28T07:30:43.942Z,9.05
2022-07-28T07:33:16.677Z,8.03
2022-07-28T07:35:48.917Z,7.30
2022-07-28T07:38:23.169Z,6.83
2022-07-28T07:40:55.348Z,6.92
2022-07-28T07:43:27.800Z,7.62
2022-07-28T07:46:00.236Z,8.10
2022-07-28T07:48:32.810Z,7.30
2022-07-28T07:51:05.351Z,7.62
2022-07-28T07:53:37.957Z,7.58
2022-07-28T07:56:10.254Z,6.90
2022-07-28T07:58:44.887Z,7.80
2022-07-28T08:01:18.449Z,6.55
2022-07-28T08:03:51.524Z,6.17
2022-07-28T08:06:26.500Z,6.28
2022-07-28T08:08:59.425Z,6.83
2022-07-28T08:11:31.877Z,6.55
2022-07-28T08:14:04.654Z,6.03
2022-07-28T08:16:38.075Z,5.83
2022-07-28T08:19:11.051Z,5.75
2022-07-28T08:21:43.999Z,7.07
2022-07-28T08:24:27.615Z,6.15
2022-07-28T08:26:53.035Z,6.05
2022-07-28T08:29:25.370Z,5.45
2022-07-28T08:31:59.946Z,5.28
2022-07-28T08:34:33.984Z,5.00
2022-07-28T08:37:07.174Z,5.22
2022-07-28T08:39:40.092Z,4.87
2022-07-28T08:42:30.319Z,4.97
2022-07-28T08:45:07.813Z,5.83
2022-07-28T08:47:58.659Z,5.10
2022-07-28T08:50:19.829Z,5.47
2022-07-28T08:52:53.709Z,5.60
2022-07-28T08:58:01.369Z,4.50
2022-07-28T09:00:33.875Z,5.62
2022-07-28T09:03:07.230Z,5.45
2022-07-28T09:05:42.051Z,5.73
2022-07-28T09:08:14.798Z,5.95
2022-07-28T09:10:48.410Z,4.87
2022-07-28T09:13:20.850Z,5.55
2022-07-28T09:15:53.489Z,5.55
2022-07-28T09:18:28.143Z,6.00
2022-07-28T09:21:00.630Z,6.10
2022-07-28T09:23:48.237Z,6.67
2022-07-28T09:26:20.585Z,5.40
2022-07-28T09:28:59.092Z,5.70
2022-07-28T09:31:31.819Z,4.67
2022-07-28T09:34:07.405Z,4.92
2022-07-28T09:36:42.155Z,5.70
2022-07-28T09:39:17.123Z,5.15
2022-07-28T09:41:51.703Z,5.08
2022-07-28T09:44:27.477Z,5.20
2022-07-28T09:46:59.814Z,5.05
2022-07-28T09:49:43.494Z,5.25
2022-07-28T09:55:03.824Z,4.75
2022-07-28T09:57:38.051Z,4.80
2022-07-28T10:00:12.802Z,4.87
2022-07-28T10:02:48.709Z,4.80
2022-07-28T10:05:22.640Z,4.95
2022-07-28T10:07:55.099Z,5.97
2022-07-28T10:10:27.293Z,5.12
2022-07-28T10:13:06.920Z,4.70
2022-07-28T10:15:56.775Z,5.20
2022-07-28T10:18:28.856Z,5.62
2022-07-28T10:21:01.209Z,5.80
2022-07-28T10:23:33.821Z,5.83
2022-07-28T10:26:13.061Z,6.00
2022-07-28T10:28:51.978Z,5.85
2022-07-28T10:31:49.882Z,5.55
2022-07-28T10:34:43.141Z,5.83
2022-07-28T10:37:24.561Z,5.80
2022-07-28T10:40:10.698Z,5.28
2022-07-28T10:42:42.555Z,5.20
2022-07-28T10:45:15.585Z,3.92
2022-07-28T10:47:49.205Z,3.37
2022-07-28T10:50:23.013Z,3.70
2022-07-28T10:52:59.344Z,3.90
2022-07-28T10:55:52.241Z,3.22
2022-07-28T10:58:36.285Z,4.22
2022-07-28T11:01:17.066Z,4.12
2022-07-28T11:03:48.834Z,3.75
2022-07-28T11:06:44.856Z,4.12
2022-07-28T11:09:22.950Z,4.30
2022-07-28T11:11:58.130Z,4.53
2022-07-28T11:14:37.158Z,5.62
2022-07-28T11:17:13.465Z,4.70
2022-07-28T11:20:06.980Z,4.55
2022-07-28T11:22:27.118Z,4.53
2022-07-28T11:25:18.732Z,4.58
2022-07-28T11:27:49.275Z,4.20
2022-07-28T11:30:33.909Z,4.85
2022-07-28T11:35:44.865Z,4.55
2022-07-28T11:38:17.671Z,4.67
2022-07-28T11:40:52.267Z,5.20
2022-07-28T11:43:36.206Z,4.50
2022-07-28T11:46:11.287Z,5.15
2022-07-28T11:48:45.467Z,4.70
2022-07-28T11:51:17.499Z,4.50
2022-07-28T11:53:53.055Z,5.40
2022-07-28T11:56:29.498Z,4.03
2022-07-28T11:59:03.753Z,4.45
2022-07-28T12:01:38.692Z,4.12
2022-07-28T12:04:14.818Z,4.30
2022-07-28T12:06:51.219Z,3.77
2022-07-28T12:09:33.730Z,4.22
2022-07-28T12:12:01.923Z,4.40
2022-07-28T12:14:39.009Z,4.10
2022-07-28T12:17:12.309Z,5.12
2022-07-28T12:19:45.851Z,4.83
2022-07-28T12:22:18.287Z,4.50
2022-07-28T12:24:53.636Z,4.83
2022-07-28T12:27:31.894Z,4.60
2022-07-28T12:30:05.750Z,4.03
2022-07-28T12:32:38.126Z,5.50
2022-07-28T12:35:10.692Z,4.33
2022-07-28T12:37:44.629Z,4.72
2022-07-28T12:40:27.499Z,4.67
2022-07-28T12:42:55.309Z,4.70
2022-07-28T12:45:28.697Z,4.15
2022-07-28T12:48:10.614Z,4.20
2022-07-28T12:50:43.661Z,4.42
2022-07-28T12:53:18.333Z,5.20
2022-07-28T12:55:53.018Z,4.80
2022-07-28T12:58:27.629Z,4.25
2022-07-28T13:01:00.203Z,3.95
2022-07-28T13:03:33.894Z,4.45
2022-07-28T13:06:12.200Z,4.20
2022-07-28T13:08:48.476Z,4.12
2022-07-28T13:13:57.909Z,4.40
2022-07-28T13:16:31.015Z,4.95
2022-07-28T13:19:05.926Z,4.70
2022-07-28T13:24:18.678Z,2.77
2022-07-28T13:26:51.556Z,1.95
2022-07-28T13:29:24.257Z,2.33
2022-07-28T13:31:56.715Z,2.30
2022-07-28T13:34:29.394Z,2.27
2022-07-28T13:37:01.516Z,2.10
2022-07-28T13:39:33.754Z,2.52
2022-07-28T13:42:06.548Z,2.60
2022-07-28T13:44:40.441Z,2.08
2022-07-28T13:47:12.675Z,2.47
2022-07-28T13:49:46.661Z,2.55
2022-07-28T13:52:32.937Z,3.02
2022-07-28T13:54:54.274Z,2.83
2022-07-28T13:57:26.503Z,3.50
2022-07-28T13:59:58.780Z,3.45
2022-07-28T14:02:31.025Z,4.45
2022-07-28T14:05:03.520Z,5.03
2022-07-28T14:07:35.810Z,6.90
2022-07-28T14:10:08.715Z,4.50
2022-07-28T14:12:41.214Z,4.83
2022-07-28T14:15:15.342Z,4.50
2022-07-28T14:17:47.777Z,4.60
2022-07-28T14:20:20.101Z,4.80
2022-07-28T14:22:52.530Z,4.90
2022-07-28T14:25:24.851Z,5.05
2022-07-28T14:27:56.938Z,5.65
2022-07-28T14:30:33.312Z,3.90
2022-07-28T14:33:07.325Z,4.30
2022-07-28T14:35:39.677Z,4.60
2022-07-28T14:40:45.788Z,4.22
2022-07-28T14:43:18.206Z,4.05
2022-07-28T14:46:14.790Z,4.50
2022-07-28T14:48:24.190Z,3.65
2022-07-28T14:50:57.235Z,4.28
2022-07-28T14:53:29.601Z,4.60
2022-07-28T14:56:01.966Z,3.50
2022-07-28T14:58:34.171Z,3.80
2022-07-28T15:01:06.742Z,4.40
2022-07-28T15:03:43.399Z,3.60
2022-07-28T15:06:14.018Z,3.98
2022-07-28T15:08:46.214Z,4.10
2022-07-28T15:11:18.302Z,4.37
2022-07-28T15:13:50.496Z,4.97
2022-07-28T15:16:22.998Z,3.45
2022-07-28T15:18:55.587Z,3.67
2022-07-28T15:21:32.979Z,3.62
2022-07-28T15:24:09.476Z,5.53
2022-07-28T15:29:14.668Z,3.87
2022-07-28T15:31:47.201Z,5.15
2022-07-28T15:34:20.355Z,4.08
2022-07-28T15:36:52.777Z,3.65
2022-07-28T15:39:25.146Z,4.45
2022-07-28T15:41:58.992Z,3.87
2022-07-28T15:44:31.914Z,3.90
2022-07-28T15:47:04.307Z,4.37
2022-07-28T15:49:36.479Z,4.72
2022-07-28T15:52:08.639Z,3.98
2022-07-28T15:54:40.812Z,4.80
2022-07-28T15:57:13.996Z,4.35
2022-07-28T15:59:50.170Z,4.10
2022-07-28T16:02:20.731Z,4.45
2022-07-28T16:04:54.154Z,5.12
2022-07-28T16:07:28.248Z,4.37
2022-07-28T16:10:00.410Z,3.92
2022-07-28T16:12:33.623Z,4.15
2022-07-28T16:15:06.571Z,3.92
2022-07-28T16:17:38.825Z,5.10
2022-07-28T16:20:11.758Z,4.25
2022-07-28T16:22:44.360Z,4.58
2022-07-28T16:25:21.055Z,5.33
2022-07-28T16:27:54.106Z,4.20
2022-07-28T16:30:26.989Z,4.42
2022-07-28T16:32:59.547Z,5.15
2022-07-28T16:35:34.606Z,4.75
2022-07-28T16:38:07.984Z,4.87
2022-07-28T16:40:40.845Z,4.72
2022-07-28T16:43:13.227Z,4.67
2022-07-28T16:45:46.172Z,4.28
2022-07-28T16:48:18.367Z,5.20
2022-07-28T16:50:50.541Z,4.50
2022-07-28T16:53:22.411Z,4.35
2022-07-28T16:55:55.051Z,5.62
2022-07-28T16:58:27.067Z,4.65
2022-07-28T17:01:00.121Z,4.33
2022-07-28T17:03:32.961Z,4.90
2022-07-28T17:06:05.419Z,5.45
2022-07-28T17:08:37.647Z,5.47
2022-07-28T17:11:10.416Z,5.55
2022-07-28T17:13:45.408Z,4.50
2022-07-28T17:16:17.019Z,5.40
2022-07-28T17:18:49.387Z,3.55
2022-07-28T17:21:21.702Z,3.20
2022-07-28T17:23:53.932Z,3.70
2022-07-28T17:29:00.593Z,2.15
2022-07-28T17:31:33.695Z,2.80
2022-07-28T17:34:06.390Z,2.80
2022-07-28T17:36:41.336Z,2.42
2022-07-28T17:39:14.286Z,2.22
2022-07-28T17:41:46.269Z,2.70
2022-07-28T17:44:18.833Z,2.83
2022-07-28T17:46:52.199Z,2.42
2022-07-28T17:49:24.378Z,2.70
2022-07-28T17:51:56.867Z,1.98
2022-07-28T17:54:30.458Z,2.62
2022-07-28T17:57:03.443Z,2.40
2022-07-28T18:02:10.433Z,1.90
2022-07-28T18:04:42.560Z,1.92
2022-07-28T18:07:15.554Z,1.87
2022-07-28T18:09:47.781Z,1.75
2022-07-28T18:12:20.028Z,1.52
2022-07-28T18:14:52.461Z,1.60
2022-07-28T18:17:25.379Z,1.40
2022-07-28T18:19:57.685Z,1.60
2022-07-28T18:22:29.912Z,1.30
2022-07-28T18:25:03.001Z,1.60
2022-07-28T18:27:36.960Z,1.40
2022-07-28T18:30:09.765Z,1.30
2022-07-28T18:32:41.759Z,0.98
2022-07-28T18:35:14.070Z,1.25
2022-07-28T18:37:46.467Z,1.50
2022-07-28T18:40:21.619Z,1.92
2022-07-28T18:42:54.217Z,0.90
2022-07-28T18:45:26.668Z,1.20
2022-07-28T18:47:59.927Z,1.75
2022-07-28T18:50:32.443Z,1.20
2022-07-28T18:53:04.857Z,1.50
2022-07-28T18:55:36.979Z,0.98
2022-07-28T18:58:09.389Z,0.98
2022-07-28T19:00:41.444Z,1.22
2022-07-28T19:03:13.545Z,1.30
2022-07-28T19:05:46.511Z,0.98
2022-07-28T19:08:18.683Z,1.50
2022-07-28T19:10:50.963Z,1.55
2022-07-28T19:13:22.983Z,1.20
2022-07-28T19:15:55.124Z,1.15
2022-07-28T19:18:27.342Z,1.35
2022-07-28T19:20:59.854Z,1.10
2022-07-28T19:23:32.521Z,1.17
2022-07-28T19:26:04.643Z,1.30
2022-07-28T19:28:36.734Z,1.10
2022-07-28T19:31:10.466Z,0.90
2022-07-28T19:33:43.862Z,0.90
2022-07-28T19:36:16.526Z,1.30
2022-07-28T19:38:48.621Z,1.10
2022-07-28T19:41:20.748Z,0.80
2022-07-28T19:43:53.073Z,1.10
2022-07-28T19:46:26.189Z,1.50
2022-07-28T19:48:58.791Z,0.90
2022-07-28T19:51:30.863Z,0.90
2022-07-28T19:54:03.115Z,0.50
2022-07-28T19:56:35.303Z,1.00
2022-07-28T19:59:07.309Z,1.00
2022-07-28T20:01:44.198Z,1.40
2022-07-28T20:04:13.060Z,0.70
2022-07-28T20:06:45.249Z,1.02
2022-07-28T20:09:17.737Z,0.93
2022-07-28T20:11:50.669Z,0.80
2022-07-28T20:14:22.652Z,0.82
2022-07-28T20:16:54.870Z,1.42
2022-07-28T20:19:27.016Z,0.70
2022-07-28T20:21:59.275Z,0.60
2022-07-28T20:24:31.426Z,0.60
2022-07-28T20:27:08.335Z,0.90
2022-07-28T20:29:40.600Z,0.90
2022-07-28T20:32:13.022Z,1.30
2022-07-28T20:34:45.218Z,1.00
2022-07-28T20:37:24.507Z,0.80
2022-07-28T20:39:57.454Z,0.80
2022-07-28T20:42:29.840Z,0.82
2022-07-28T20:45:02.187Z,0.68
2022-07-28T20:47:35.074Z,1.20
2022-07-28T20:50:08.085Z,1.20
2022-07-28T20:52:40.255Z,1.12
2022-07-28T20:55:12.827Z,0.88
2022-07-28T20:57:53.523Z,0.90
2022-07-28T21:00:19.075Z,0.63
2022-07-28T21:02:51.611Z,0.78
2022-07-28T21:05:26.793Z,0.80
2022-07-28T21:08:05.080Z,0.98
2022-07-28T21:10:31.866Z,1.00
2022-07-28T21:13:03.967Z,0.68
2022-07-28T21:15:36.167Z,1.00
2022-07-28T21:18:08.180Z,1.05
2022-07-28T21:20:40.534Z,1.42
2022-07-28T21:23:12.599Z,0.90
2022-07-28T21:25:45.652Z,0.70
2022-07-28T21:28:35.025Z,0.78
2022-07-28T21:31:07.842Z,0.65
2022-07-28T21:33:40.257Z,1.00
2022-07-28T21:36:12.437Z,0.78
2022-07-28T21:38:45.695Z,0.80
2022-07-28T21:41:19.294Z,0.60
2022-07-28T21:43:53.510Z,1.20
2022-07-28T21:46:26.513Z,2.05
2022-07-28T21:49:01.269Z,1.57
2022-07-28T21:51:34.364Z,0.80
2022-07-28T21:54:06.629Z,0.90
2022-07-28T21:56:38.821Z,0.70
2022-07-28T21:59:10.902Z,0.70
2022-07-28T22:01:43.157Z,0.93
2022-07-28T22:04:15.704Z,0.80
2022-07-28T22:06:48.442Z,0.93
2022-07-28T22:09:20.805Z,0.72
2022-07-28T22:11:53.084Z,0.90
2022-07-28T22:14:26.973Z,0.80
2022-07-28T22:17:01.506Z,0.90
2022-07-28T22:19:34.151Z,0.80
2022-07-28T22:22:06.160Z,0.80
2022-07-28T22:24:38.419Z,0.80
2022-07-28T22:27:10.478Z,0.80
2022-07-28T22:29:43.484Z,0.80
2022-07-28T22:32:16.546Z,1.07
2022-07-28T22:34:48.993Z,0.62
2022-07-28T22:37:20.975Z,0.80
2022-07-28T22:39:53.276Z,0.90
2022-07-28T22:42:25.284Z,0.90
2022-07-28T22:44:57.292Z,0.50
2022-07-28T22:47:29.734Z,0.90
2022-07-28T22:50:01.723Z,0.90
2022-07-28T22:52:34.585Z,1.27
2022-07-28T22:55:07.189Z,1.00
2022-07-28T22:57:40.498Z,0.77
2022-07-28T23:00:12.856Z,0.88
2022-07-28T23:02:44.966Z,0.90
2022-07-28T23:05:17.239Z,0.68
2022-07-28T23:07:53.093Z,0.98
2022-07-28T23:10:23.172Z,0.78
2022-07-28T23:12:58.583Z,0.90
2022-07-28T23:15:40.902Z,1.27
2022-07-28T23:18:03.369Z,1.32
2022-07-28T23:20:35.820Z,0.88
2022-07-28T23:23:08.122Z,0.82
2022-07-28T23:25:43.046Z,0.88
2022-07-28T23:28:15.245Z,0.80
2022-07-28T23:30:48.229Z,0.82
2022-07-28T23:33:54.659Z,1.42
2022-07-28T23:35:55.802Z,0.98
2022-07-28T23:38:27.882Z,0.90
2022-07-28T23:40:59.894Z,0.93
2022-07-28T23:43:32.173Z,0.80
2022-07-28T23:46:04.210Z,0.90
2022-07-28T23:48:36.892Z,0.93
2022-07-28T23:51:08.990Z,1.02
2022-07-28T23:53:42.850Z,1.20
2022-07-28T23:56:15.960Z,1.35
2022-07-28T23:58:47.995Z,0.90
